This is the latest recevied weather packets stored in our database for station/object LRBM. If no packets are shown the sender has not sent any weather packets the latest 1 day(s).
| Time | Temp. | Humidity | Pressure | Rain* | Wind** | Luminosity | Snow |
|---|---|---|---|---|---|---|---|
| 1778100516 | 15° C | 63% | 1012 hPa | - | - | - | - |
| 1778093321 | 18.89° C | 52% | 1011 hPa | - | - | - | - |
| 1778090616 | 20° C | 49% | 1011 hPa | - | - | - | - |
| 1778089716 | 22.22° C | 41% | 1011 hPa | - | - | - | - |
| 1778087916 | 23.89° C | 36% | 1011 hPa | - | - | - | - |
| 1778084316 | 26.11° C | 32% | 1010 hPa | - | - | - | - |
| 1778082516 | 26.11° C | 30% | 1011 hPa | - | - | - | - |
| 1778078027 | 27.22° C | 28% | 1011 hPa | - | - | - | - |
| 1778069916 | 26.11° C | 26% | 1012 hPa | - | - | - | - |
| 1778067216 | 26.11° C | 26% | 1012 hPa | - | - | - | - |
| 1778066315 | 25° C | 28% | 1013 hPa | - | - | - | - |
| 1778063616 | 25° C | 32% | 1013 hPa | - | - | - | - |
| 1778062716 | 23.89° C | 31% | 1013 hPa | - | - | - | - |
| 1778060015 | 23.89° C | 31% | 1013 hPa | - | - | - | - |
| 1778056415 | 22.78° C | 36% | 1013 hPa | - | - | - | - |
| 1778055512 | 22.22° C | 36% | 1013 hPa | - | - | - | - |
| 1778053716 | 21.11° C | 40% | 1013 hPa | - | - | - | - |
| 1778051915 | 20° C | 40% | 1013 hPa | - | - | - | - |
| 1778051015 | 20° C | 40% | 1013 hPa | - | - | - | - |
| 1778049215 | 18.89° C | 46% | 1013 hPa | - | - | - | - |
| 1778047417 | 17.22° C | 52% | 1013 hPa | - | - | - | - |
| 1778046517 | 16.11° C | 52% | 1013 hPa | - | - | - | - |
| 1778045624 | 16.11° C | 52% | 1013 hPa | - | - | - | - |
| 1778044716 | 13.89° C | 59% | 1013 hPa | - | - | - | - |
| 1778042931 | 12.22° C | 67% | 1013 hPa | - | - | - | - |
* Rain since midnight (hover to see other rain measurements)
** Current wind speed in m/s (hover to see current wind gust speed)